sensor_id;sensor_type;location;lat;lon;timestamp;temperature;humidity
30764;DHT22;17497;51.476;7.770;2023-11-18T00:01:59;0.70;99.90
30764;DHT22;17497;51.476;7.770;2023-11-18T00:04:26;0.70;99.90
30764;DHT22;17497;51.476;7.770;2023-11-18T00:06:53;0.70;99.90
30764;DHT22;17497;51.476;7.770;2023-11-18T00:09:20;0.70;99.90
30764;DHT22;17497;51.476;7.770;2023-11-18T00:11:48;0.70;99.90
30764;DHT22;17497;51.476;7.770;2023-11-18T00:14:15;0.70;99.90
30764;DHT22;17497;51.476;7.770;2023-11-18T00:16:42;0.70;99.90
30764;DHT22;17497;51.476;7.770;2023-11-18T00:19:08;0.70;99.90
30764;DHT22;17497;51.476;7.770;2023-11-18T00:21:35;0.70;99.90
30764;DHT22;17497;51.476;7.770;2023-11-18T00:24:02;0.70;99.90
30764;DHT22;17497;51.476;7.770;2023-11-18T00:26:29;0.70;99.90
30764;DHT22;17497;51.476;7.770;2023-11-18T00:28:56;0.70;99.90
30764;DHT22;17497;51.476;7.770;2023-11-18T00:31:22;0.70;99.90
30764;DHT22;17497;51.476;7.770;2023-11-18T00:33:49;0.70;99.90
30764;DHT22;17497;51.476;7.770;2023-11-18T00:36:16;0.60;99.90
30764;DHT22;17497;51.476;7.770;2023-11-18T00:38:43;0.60;99.90
30764;DHT22;17497;51.476;7.770;2023-11-18T00:41:09;0.60;99.90
30764;DHT22;17497;51.476;7.770;2023-11-18T00:43:36;0.60;99.90
30764;DHT22;17497;51.476;7.770;2023-11-18T00:46:03;0.60;99.90
30764;DHT22;17497;51.476;7.770;2023-11-18T00:48:30;0.50;99.90
30764;DHT22;17497;51.476;7.770;2023-11-18T00:50:57;0.60;99.90
30764;DHT22;17497;51.476;7.770;2023-11-18T00:53:23;0.60;99.90
30764;DHT22;17497;51.476;7.770;2023-11-18T00:55:50;0.60;99.90
30764;DHT22;17497;51.476;7.770;2023-11-18T00:58:17;0.60;99.90
30764;DHT22;17497;51.476;7.770;2023-11-18T01:00:44;0.60;99.90
30764;DHT22;17497;51.476;7.770;2023-11-18T01:03:10;0.60;99.90
30764;DHT22;17497;51.476;7.770;2023-11-18T01:05:37;0.60;99.90
30764;DHT22;17497;51.476;7.770;2023-11-18T01:08:05;0.60;99.90
30764;DHT22;17497;51.476;7.770;2023-11-18T01:10:32;0.60;99.90
30764;DHT22;17497;51.476;7.770;2023-11-18T01:12:58;0.70;99.90
30764;DHT22;17497;51.476;7.770;2023-11-18T01:15:25;0.70;99.90
30764;DHT22;17497;51.476;7.770;2023-11-18T01:17:52;0.60;99.90
30764;DHT22;17497;51.476;7.770;2023-11-18T01:20:18;0.60;99.90
30764;DHT22;17497;51.476;7.770;2023-11-18T01:22:48;0.60;99.90
30764;DHT22;17497;51.476;7.770;2023-11-18T01:25:15;0.60;99.90
30764;DHT22;17497;51.476;7.770;2023-11-18T01:27:45;0.70;99.90
30764;DHT22;17497;51.476;7.770;2023-11-18T01:30:15;0.60;99.90
30764;DHT22;17497;51.476;7.770;2023-11-18T01:32:42;0.60;99.90
30764;DHT22;17497;51.476;7.770;2023-11-18T01:35:09;0.70;99.90
30764;DHT22;17497;51.476;7.770;2023-11-18T01:37:37;0.70;99.90
30764;DHT22;17497;51.476;7.770;2023-11-18T01:40:05;0.80;99.90
30764;DHT22;17497;51.476;7.770;2023-11-18T01:42:31;0.80;99.90
30764;DHT22;17497;51.476;7.770;2023-11-18T01:44:58;0.80;99.90
30764;DHT22;17497;51.476;7.770;2023-11-18T01:47:26;0.80;99.90
30764;DHT22;17497;51.476;7.770;2023-11-18T01:49:53;0.70;99.90
30764;DHT22;17497;51.476;7.770;2023-11-18T01:52:19;0.80;99.90
30764;DHT22;17497;51.476;7.770;2023-11-18T01:54:48;0.80;99.90
30764;DHT22;17497;51.476;7.770;2023-11-18T01:57:15;0.80;99.90
30764;DHT22;17497;51.476;7.770;2023-11-18T01:59:43;0.80;99.90
30764;DHT22;17497;51.476;7.770;2023-11-18T02:02:10;0.80;99.90
30764;DHT22;17497;51.476;7.770;2023-11-18T02:04:37;0.80;99.90
30764;DHT22;17497;51.476;7.770;2023-11-18T02:07:04;0.80;99.90
30764;DHT22;17497;51.476;7.770;2023-11-18T02:09:36;0.90;99.90
30764;DHT22;17497;51.476;7.770;2023-11-18T02:14:48;1.10;99.90
30764;DHT22;17497;51.476;7.770;2023-11-18T02:17:17;1.10;99.90
30764;DHT22;17497;51.476;7.770;2023-11-18T02:19:44;1.20;99.90
30764;DHT22;17497;51.476;7.770;2023-11-18T02:22:11;1.20;99.90
30764;DHT22;17497;51.476;7.770;2023-11-18T02:24:38;1.20;99.90
30764;DHT22;17497;51.476;7.770;2023-11-18T02:27:07;1.20;99.90
30764;DHT22;17497;51.476;7.770;2023-11-18T02:29:34;1.20;99.90
30764;DHT22;17497;51.476;7.770;2023-11-18T02:34:44;1.20;99.90
30764;DHT22;17497;51.476;7.770;2023-11-18T02:37:14;1.20;99.90
30764;DHT22;17497;51.476;7.770;2023-11-18T02:39:43;1.20;99.90
30764;DHT22;17497;51.476;7.770;2023-11-18T02:42:10;1.10;99.90
30764;DHT22;17497;51.476;7.770;2023-11-18T02:44:38;1.10;99.90
30764;DHT22;17497;51.476;7.770;2023-11-18T02:47:05;1.10;99.90
30764;DHT22;17497;51.476;7.770;2023-11-18T02:49:34;1.10;99.90
30764;DHT22;17497;51.476;7.770;2023-11-18T02:52:01;1.10;99.90
30764;DHT22;17497;51.476;7.770;2023-11-18T02:54:27;1.20;99.90
30764;DHT22;17497;51.476;7.770;2023-11-18T02:56:54;1.20;99.90
30764;DHT22;17497;51.476;7.770;2023-11-18T02:59:21;1.20;99.90
30764;DHT22;17497;51.476;7.770;2023-11-18T03:01:48;1.30;99.90
30764;DHT22;17497;51.476;7.770;2023-11-18T03:04:15;1.30;99.90
30764;DHT22;17497;51.476;7.770;2023-11-18T03:06:42;1.30;99.90
30764;DHT22;17497;51.476;7.770;2023-11-18T03:09:09;1.30;99.90
30764;DHT22;17497;51.476;7.770;2023-11-18T03:11:36;1.40;99.90
30764;DHT22;17497;51.476;7.770;2023-11-18T03:14:04;1.30;99.90
30764;DHT22;17497;51.476;7.770;2023-11-18T03:16:31;1.40;99.90
30764;DHT22;17497;51.476;7.770;2023-11-18T03:18:58;1.40;99.90
30764;DHT22;17497;51.476;7.770;2023-11-18T03:21:25;1.40;99.90
30764;DHT22;17497;51.476;7.770;2023-11-18T03:23:53;1.40;99.90
30764;DHT22;17497;51.476;7.770;2023-11-18T03:26:19;1.40;99.90
30764;DHT22;17497;51.476;7.770;2023-11-18T03:28:46;1.50;99.90
30764;DHT22;17497;51.476;7.770;2023-11-18T03:31:13;1.40;99.90
30764;DHT22;17497;51.476;7.770;2023-11-18T03:33:41;1.40;99.90
30764;DHT22;17497;51.476;7.770;2023-11-18T03:36:08;1.50;99.90
30764;DHT22;17497;51.476;7.770;2023-11-18T03:38:35;1.50;99.90
30764;DHT22;17497;51.476;7.770;2023-11-18T03:41:01;1.60;99.90
30764;DHT22;17497;51.476;7.770;2023-11-18T03:43:28;1.60;99.90
30764;DHT22;17497;51.476;7.770;2023-11-18T03:45:55;1.60;99.90
30764;DHT22;17497;51.476;7.770;2023-11-18T03:48:23;1.60;99.90
30764;DHT22;17497;51.476;7.770;2023-11-18T03:50:50;1.60;99.90
30764;DHT22;17497;51.476;7.770;2023-11-18T03:53:17;1.60;99.90
30764;DHT22;17497;51.476;7.770;2023-11-18T03:55:43;1.60;99.90
30764;DHT22;17497;51.476;7.770;2023-11-18T03:58:10;1.60;99.90
30764;DHT22;17497;51.476;7.770;2023-11-18T04:00:36;1.60;99.90
30764;DHT22;17497;51.476;7.770;2023-11-18T04:03:03;1.60;99.90
30764;DHT22;17497;51.476;7.770;2023-11-18T04:05:34;1.70;99.90
30764;DHT22;17497;51.476;7.770;2023-11-18T04:08:01;1.70;99.90
30764;DHT22;17497;51.476;7.770;2023-11-18T04:10:27;1.70;99.90
30764;DHT22;17497;51.476;7.770;2023-11-18T04:12:54;1.70;99.90
30764;DHT22;17497;51.476;7.770;2023-11-18T04:15:21;1.60;99.90
30764;DHT22;17497;51.476;7.770;2023-11-18T04:17:47;1.60;99.90
30764;DHT22;17497;51.476;7.770;2023-11-18T04:20:14;1.70;99.90
30764;DHT22;17497;51.476;7.770;2023-11-18T04:22:42;1.70;99.90
30764;DHT22;17497;51.476;7.770;2023-11-18T04:25:09;1.80;99.90
30764;DHT22;17497;51.476;7.770;2023-11-18T04:27:39;1.80;99.90
30764;DHT22;17497;51.476;7.770;2023-11-18T04:30:09;1.80;99.90
30764;DHT22;17497;51.476;7.770;2023-11-18T04:32:36;1.80;99.90
30764;DHT22;17497;51.476;7.770;2023-11-18T04:35:03;1.80;99.90
30764;DHT22;17497;51.476;7.770;2023-11-18T04:37:34;1.80;99.90
30764;DHT22;17497;51.476;7.770;2023-11-18T04:40:02;1.80;99.90
30764;DHT22;17497;51.476;7.770;2023-11-18T04:42:29;1.80;99.90
30764;DHT22;17497;51.476;7.770;2023-11-18T04:44:56;1.80;99.90
30764;DHT22;17497;51.476;7.770;2023-11-18T04:47:24;1.80;99.90
30764;DHT22;17497;51.476;7.770;2023-11-18T04:49:51;1.80;99.90
30764;DHT22;17497;51.476;7.770;2023-11-18T04:52:18;1.80;99.90
30764;DHT22;17497;51.476;7.770;2023-11-18T04:54:45;1.90;99.90
30764;DHT22;17497;51.476;7.770;2023-11-18T04:57:14;1.80;99.90
30764;DHT22;17497;51.476;7.770;2023-11-18T04:59:41;1.80;99.90
30764;DHT22;17497;51.476;7.770;2023-11-18T05:02:09;1.90;99.90
30764;DHT22;17497;51.476;7.770;2023-11-18T05:04:35;1.90;99.90
30764;DHT22;17497;51.476;7.770;2023-11-18T05:07:02;1.90;99.90
30764;DHT22;17497;51.476;7.770;2023-11-18T05:09:30;2.00;99.90
30764;DHT22;17497;51.476;7.770;2023-11-18T05:11:57;2.00;99.90
30764;DHT22;17497;51.476;7.770;2023-11-18T05:14:25;2.00;99.90
30764;DHT22;17497;51.476;7.770;2023-11-18T05:16:52;2.00;99.90
30764;DHT22;17497;51.476;7.770;2023-11-18T05:19:20;2.10;99.90
30764;DHT22;17497;51.476;7.770;2023-11-18T05:21:47;2.10;99.90
30764;DHT22;17497;51.476;7.770;2023-11-18T05:24:16;2.10;99.90
30764;DHT22;17497;51.476;7.770;2023-11-18T05:26:42;2.10;99.90
30764;DHT22;17497;51.476;7.770;2023-11-18T05:29:09;2.10;99.90
30764;DHT22;17497;51.476;7.770;2023-11-18T05:31:36;2.20;99.90
30764;DHT22;17497;51.476;7.770;2023-11-18T05:34:03;2.10;99.90
30764;DHT22;17497;51.476;7.770;2023-11-18T05:36:31;2.20;99.90
30764;DHT22;17497;51.476;7.770;2023-11-18T05:39:03;2.20;99.90
30764;DHT22;17497;51.476;7.770;2023-11-18T05:41:31;2.30;99.90
30764;DHT22;17497;51.476;7.770;2023-11-18T05:43:58;2.40;99.90
30764;DHT22;17497;51.476;7.770;2023-11-18T05:46:25;2.40;99.90
30764;DHT22;17497;51.476;7.770;2023-11-18T05:48:55;2.50;99.90
30764;DHT22;17497;51.476;7.770;2023-11-18T05:51:23;2.50;99.90
30764;DHT22;17497;51.476;7.770;2023-11-18T05:53:50;2.50;99.90
30764;DHT22;17497;51.476;7.770;2023-11-18T05:56:18;2.60;99.90
30764;DHT22;17497;51.476;7.770;2023-11-18T05:58:45;2.60;99.90
30764;DHT22;17497;51.476;7.770;2023-11-18T06:01:12;2.60;99.90
30764;DHT22;17497;51.476;7.770;2023-11-18T06:03:41;2.70;99.90
30764;DHT22;17497;51.476;7.770;2023-11-18T06:06:08;2.70;99.90
30764;DHT22;17497;51.476;7.770;2023-11-18T06:08:36;2.70;99.90
30764;DHT22;17497;51.476;7.770;2023-11-18T06:11:07;2.70;99.90
30764;DHT22;17497;51.476;7.770;2023-11-18T06:16:18;2.80;99.90
30764;DHT22;17497;51.476;7.770;2023-11-18T06:18:48;2.90;99.90
30764;DHT22;17497;51.476;7.770;2023-11-18T06:21:16;2.90;99.90
30764;DHT22;17497;51.476;7.770;2023-11-18T06:23:42;3.00;99.90
30764;DHT22;17497;51.476;7.770;2023-11-18T06:26:09;3.00;99.90
30764;DHT22;17497;51.476;7.770;2023-11-18T06:28:43;3.10;99.90
30764;DHT22;17497;51.476;7.770;2023-11-18T06:31:11;3.00;99.90
30764;DHT22;17497;51.476;7.770;2023-11-18T06:33:41;3.00;99.90
30764;DHT22;17497;51.476;7.770;2023-11-18T06:38:41;3.00;99.90
30764;DHT22;17497;51.476;7.770;2023-11-18T06:41:08;3.00;99.90
30764;DHT22;17497;51.476;7.770;2023-11-18T06:43:38;3.00;99.90
30764;DHT22;17497;51.476;7.770;2023-11-18T06:46:27;3.00;99.90
30764;DHT22;17497;51.476;7.770;2023-11-18T06:48:58;3.00;99.90
30764;DHT22;17497;51.476;7.770;2023-11-18T06:51:26;3.10;99.90
30764;DHT22;17497;51.476;7.770;2023-11-18T06:53:54;3.10;99.90
30764;DHT22;17497;51.476;7.770;2023-11-18T06:56:24;3.10;99.90
30764;DHT22;17497;51.476;7.770;2023-11-18T06:58:50;3.00;99.90
30764;DHT22;17497;51.476;7.770;2023-11-18T07:01:17;3.10;99.90
30764;DHT22;17497;51.476;7.770;2023-11-18T07:03:45;3.10;99.90
30764;DHT22;17497;51.476;7.770;2023-11-18T07:06:18;3.20;99.90
30764;DHT22;17497;51.476;7.770;2023-11-18T07:08:49;3.20;99.90
30764;DHT22;17497;51.476;7.770;2023-11-18T07:11:16;3.20;99.90
30764;DHT22;17497;51.476;7.770;2023-11-18T07:13:43;3.30;99.90
30764;DHT22;17497;51.476;7.770;2023-11-18T07:16:10;3.40;99.90
30764;DHT22;17497;51.476;7.770;2023-11-18T07:18:37;3.40;99.90
30764;DHT22;17497;51.476;7.770;2023-11-18T07:21:04;3.40;99.90
30764;DHT22;17497;51.476;7.770;2023-11-18T07:23:31;3.50;99.90
30764;DHT22;17497;51.476;7.770;2023-11-18T07:25:58;3.50;99.90
30764;DHT22;17497;51.476;7.770;2023-11-18T07:28:25;3.50;99.90
30764;DHT22;17497;51.476;7.770;2023-11-18T07:30:52;3.60;99.90
30764;DHT22;17497;51.476;7.770;2023-11-18T07:33:20;3.60;99.90
30764;DHT22;17497;51.476;7.770;2023-11-18T07:35:47;3.60;99.90
30764;DHT22;17497;51.476;7.770;2023-11-18T07:38:17;3.60;99.90
30764;DHT22;17497;51.476;7.770;2023-11-18T07:40:47;3.70;99.90
30764;DHT22;17497;51.476;7.770;2023-11-18T07:43:14;3.80;99.90
30764;DHT22;17497;51.476;7.770;2023-11-18T07:45:41;3.80;99.90
30764;DHT22;17497;51.476;7.770;2023-11-18T07:48:12;3.90;99.90
30764;DHT22;17497;51.476;7.770;2023-11-18T07:50:39;4.00;99.90
30764;DHT22;17497;51.476;7.770;2023-11-18T07:53:10;4.00;99.90
30764;DHT22;17497;51.476;7.770;2023-11-18T07:55:37;4.00;99.90
30764;DHT22;17497;51.476;7.770;2023-11-18T07:58:09;4.10;99.90
30764;DHT22;17497;51.476;7.770;2023-11-18T08:00:39;4.20;99.90
30764;DHT22;17497;51.476;7.770;2023-11-18T08:03:06;4.20;99.90
30764;DHT22;17497;51.476;7.770;2023-11-18T08:05:38;4.30;99.90
30764;DHT22;17497;51.476;7.770;2023-11-18T08:08:09;4.30;99.90
30764;DHT22;17497;51.476;7.770;2023-11-18T08:10:37;4.40;99.90
30764;DHT22;17497;51.476;7.770;2023-11-18T08:13:05;4.50;99.90
30764;DHT22;17497;51.476;7.770;2023-11-18T08:15:39;4.60;99.90
30764;DHT22;17497;51.476;7.770;2023-11-18T08:18:06;4.70;99.90
30764;DHT22;17497;51.476;7.770;2023-11-18T08:20:33;4.80;99.90
30764;DHT22;17497;51.476;7.770;2023-11-18T08:23:00;4.90;99.90
30764;DHT22;17497;51.476;7.770;2023-11-18T08:25:26;4.90;99.90
30764;DHT22;17497;51.476;7.770;2023-11-18T08:27:53;5.00;99.90
30764;DHT22;17497;51.476;7.770;2023-11-18T08:30:20;5.10;99.90
30764;DHT22;17497;51.476;7.770;2023-11-18T08:32:47;5.20;99.90
30764;DHT22;17497;51.476;7.770;2023-11-18T08:35:14;5.20;99.90
30764;DHT22;17497;51.476;7.770;2023-11-18T08:37:42;5.30;99.90
30764;DHT22;17497;51.476;7.770;2023-11-18T08:40:09;5.30;99.90
30764;DHT22;17497;51.476;7.770;2023-11-18T08:42:46;5.30;99.90
30764;DHT22;17497;51.476;7.770;2023-11-18T08:45:17;5.40;99.90
30764;DHT22;17497;51.476;7.770;2023-11-18T08:47:45;5.40;99.90
30764;DHT22;17497;51.476;7.770;2023-11-18T08:50:16;5.50;99.90
30764;DHT22;17497;51.476;7.770;2023-11-18T08:52:46;5.50;99.90
30764;DHT22;17497;51.476;7.770;2023-11-18T08:55:19;5.50;99.90
30764;DHT22;17497;51.476;7.770;2023-11-18T08:57:46;5.70;99.90
30764;DHT22;17497;51.476;7.770;2023-11-18T09:00:28;5.70;99.90
30764;DHT22;17497;51.476;7.770;2023-11-18T09:03:14;5.80;99.90
30764;DHT22;17497;51.476;7.770;2023-11-18T09:06:05;5.80;99.90
30764;DHT22;17497;51.476;7.770;2023-11-18T09:08:33;5.80;99.90
30764;DHT22;17497;51.476;7.770;2023-11-18T09:11:06;5.80;99.90
30764;DHT22;17497;51.476;7.770;2023-11-18T09:13:33;5.90;99.90
30764;DHT22;17497;51.476;7.770;2023-11-18T09:16:02;5.80;99.90
30764;DHT22;17497;51.476;7.770;2023-11-18T09:18:29;5.90;99.90
30764;DHT22;17497;51.476;7.770;2023-11-18T09:21:03;6.00;99.90
30764;DHT22;17497;51.476;7.770;2023-11-18T09:23:32;6.00;99.90
30764;DHT22;17497;51.476;7.770;2023-11-18T09:26:01;6.00;99.90
30764;DHT22;17497;51.476;7.770;2023-11-18T09:28:28;5.90;99.90
30764;DHT22;17497;51.476;7.770;2023-11-18T09:30:57;5.90;99.90
30764;DHT22;17497;51.476;7.770;2023-11-18T09:33:25;5.90;99.90
30764;DHT22;17497;51.476;7.770;2023-11-18T09:35:52;5.90;99.90
30764;DHT22;17497;51.476;7.770;2023-11-18T09:38:31;5.90;99.90
30764;DHT22;17497;51.476;7.770;2023-11-18T09:40:58;5.90;99.90
30764;DHT22;17497;51.476;7.770;2023-11-18T09:43:29;5.90;99.90
30764;DHT22;17497;51.476;7.770;2023-11-18T09:46:16;5.90;99.90
30764;DHT22;17497;51.476;7.770;2023-11-18T09:48:48;5.90;99.90
30764;DHT22;17497;51.476;7.770;2023-11-18T09:51:43;5.90;99.90
30764;DHT22;17497;51.476;7.770;2023-11-18T09:57:34;5.80;99.90
30764;DHT22;17497;51.476;7.770;2023-11-18T10:00:20;5.80;99.90
30764;DHT22;17497;51.476;7.770;2023-11-18T10:03:08;5.80;99.90
30764;DHT22;17497;51.476;7.770;2023-11-18T10:05:53;5.80;99.90
30764;DHT22;17497;51.476;7.770;2023-11-18T10:08:25;5.80;99.90
30764;DHT22;17497;51.476;7.770;2023-11-18T10:11:16;5.80;99.90
30764;DHT22;17497;51.476;7.770;2023-11-18T10:13:50;5.80;99.90
30764;DHT22;17497;51.476;7.770;2023-11-18T10:16:27;5.90;99.90
30764;DHT22;17497;51.476;7.770;2023-11-18T10:19:05;5.90;99.90
30764;DHT22;17497;51.476;7.770;2023-11-18T10:21:37;5.90;99.90
30764;DHT22;17497;51.476;7.770;2023-11-18T10:24:09;5.90;99.90
30764;DHT22;17497;51.476;7.770;2023-11-18T14:11:37;6.20;99.90
30764;DHT22;17497;51.476;7.770;2023-11-18T14:14:04;6.20;99.90
30764;DHT22;17497;51.476;7.770;2023-11-18T14:16:32;6.20;99.90
30764;DHT22;17497;51.476;7.770;2023-11-18T14:18:59;6.20;99.90
30764;DHT22;17497;51.476;7.770;2023-11-18T14:21:26;6.20;99.90
30764;DHT22;17497;51.476;7.770;2023-11-18T14:23:52;6.20;99.90
30764;DHT22;17497;51.476;7.770;2023-11-18T14:26:22;6.20;99.90
30764;DHT22;17497;51.476;7.770;2023-11-18T14:28:49;6.20;99.90
30764;DHT22;17497;51.476;7.770;2023-11-18T14:31:16;6.20;99.90
30764;DHT22;17497;51.476;7.770;2023-11-18T14:33:43;6.30;99.90
30764;DHT22;17497;51.476;7.770;2023-11-18T14:36:09;6.30;99.90
30764;DHT22;17497;51.476;7.770;2023-11-18T14:38:37;6.30;99.90
30764;DHT22;17497;51.476;7.770;2023-11-18T14:41:04;6.30;99.90
30764;DHT22;17497;51.476;7.770;2023-11-18T14:43:31;6.30;99.90
30764;DHT22;17497;51.476;7.770;2023-11-18T14:45:58;6.30;99.90
30764;DHT22;17497;51.476;7.770;2023-11-18T14:48:25;6.40;99.90
30764;DHT22;17497;51.476;7.770;2023-11-18T14:50:51;6.40;99.90
30764;DHT22;17497;51.476;7.770;2023-11-18T14:53:18;6.40;99.90
30764;DHT22;17497;51.476;7.770;2023-11-18T14:55:45;6.40;99.90
30764;DHT22;17497;51.476;7.770;2023-11-18T14:58:12;6.40;99.90
30764;DHT22;17497;51.476;7.770;2023-11-18T15:00:40;6.40;99.90
30764;DHT22;17497;51.476;7.770;2023-11-18T15:03:06;6.50;99.90
30764;DHT22;17497;51.476;7.770;2023-11-18T15:05:33;6.50;99.90
30764;DHT22;17497;51.476;7.770;2023-11-18T15:08:00;6.50;99.90
30764;DHT22;17497;51.476;7.770;2023-11-18T15:10:27;6.50;99.90
30764;DHT22;17497;51.476;7.770;2023-11-18T15:12:58;6.50;99.90
30764;DHT22;17497;51.476;7.770;2023-11-18T15:15:25;6.60;99.90
30764;DHT22;17497;51.476;7.770;2023-11-18T15:17:59;6.60;99.90
30764;DHT22;17497;51.476;7.770;2023-11-18T15:20:26;6.60;99.90
30764;DHT22;17497;51.476;7.770;2023-11-18T15:22:53;6.60;99.90
30764;DHT22;17497;51.476;7.770;2023-11-18T15:25:20;6.60;99.90
30764;DHT22;17497;51.476;7.770;2023-11-18T15:27:47;6.50;99.90
30764;DHT22;17497;51.476;7.770;2023-11-18T15:30:14;6.40;99.90
30764;DHT22;17497;51.476;7.770;2023-11-18T15:32:41;6.40;99.90
30764;DHT22;17497;51.476;7.770;2023-11-18T15:35:08;6.40;99.90
30764;DHT22;17497;51.476;7.770;2023-11-18T15:37:36;6.40;99.90
30764;DHT22;17497;51.476;7.770;2023-11-18T15:40:07;6.30;99.90
30764;DHT22;17497;51.476;7.770;2023-11-18T15:42:37;6.30;99.90
30764;DHT22;17497;51.476;7.770;2023-11-18T15:45:04;6.30;99.90
30764;DHT22;17497;51.476;7.770;2023-11-18T15:47:31;6.30;99.90
30764;DHT22;17497;51.476;7.770;2023-11-18T15:49:58;6.30;99.90
30764;DHT22;17497;51.476;7.770;2023-11-18T15:52:24;6.30;99.90
30764;DHT22;17497;51.476;7.770;2023-11-18T15:54:51;6.30;99.90
30764;DHT22;17497;51.476;7.770;2023-11-18T15:57:17;6.30;99.90
30764;DHT22;17497;51.476;7.770;2023-11-18T15:59:44;6.30;99.90
30764;DHT22;17497;51.476;7.770;2023-11-18T16:02:11;6.30;99.90
30764;DHT22;17497;51.476;7.770;2023-11-18T16:04:38;6.30;99.90
30764;DHT22;17497;51.476;7.770;2023-11-18T16:07:06;6.30;99.90
30764;DHT22;17497;51.476;7.770;2023-11-18T16:09:33;6.40;99.90
30764;DHT22;17497;51.476;7.770;2023-11-18T16:11:59;6.40;99.90
30764;DHT22;17497;51.476;7.770;2023-11-18T16:14:26;6.40;99.90
30764;DHT22;17497;51.476;7.770;2023-11-18T16:16:53;6.40;99.90
30764;DHT22;17497;51.476;7.770;2023-11-18T16:19:19;6.40;99.90
30764;DHT22;17497;51.476;7.770;2023-11-18T16:21:48;6.40;99.90
30764;DHT22;17497;51.476;7.770;2023-11-18T16:24:17;6.40;99.90
30764;DHT22;17497;51.476;7.770;2023-11-18T16:26:43;6.40;99.90
30764;DHT22;17497;51.476;7.770;2023-11-18T16:29:13;6.30;99.90
30764;DHT22;17497;51.476;7.770;2023-11-18T16:31:40;6.30;99.90
30764;DHT22;17497;51.476;7.770;2023-11-18T16:34:07;6.30;99.90
30764;DHT22;17497;51.476;7.770;2023-11-18T16:36:35;6.30;99.90
30764;DHT22;17497;51.476;7.770;2023-11-18T16:39:01;6.30;99.90
30764;DHT22;17497;51.476;7.770;2023-11-18T16:41:28;6.30;99.90
30764;DHT22;17497;51.476;7.770;2023-11-18T16:44:06;6.30;99.90
30764;DHT22;17497;51.476;7.770;2023-11-18T16:46:39;6.30;99.90
30764;DHT22;17497;51.476;7.770;2023-11-18T16:49:06;6.30;99.90
30764;DHT22;17497;51.476;7.770;2023-11-18T16:51:33;6.30;99.90
30764;DHT22;17497;51.476;7.770;2023-11-18T16:54:00;6.30;99.90
30764;DHT22;17497;51.476;7.770;2023-11-18T16:56:28;6.30;99.90
30764;DHT22;17497;51.476;7.770;2023-11-18T16:58:55;6.30;99.90
30764;DHT22;17497;51.476;7.770;2023-11-18T17:01:21;6.30;99.90
30764;DHT22;17497;51.476;7.770;2023-11-18T17:03:51;6.30;99.90
30764;DHT22;17497;51.476;7.770;2023-11-18T17:06:18;6.30;99.90
30764;DHT22;17497;51.476;7.770;2023-11-18T17:08:47;6.30;99.90
30764;DHT22;17497;51.476;7.770;2023-11-18T17:11:14;6.30;99.90
30764;DHT22;17497;51.476;7.770;2023-11-18T17:13:41;6.30;99.90
30764;DHT22;17497;51.476;7.770;2023-11-18T17:16:08;6.30;99.90
30764;DHT22;17497;51.476;7.770;2023-11-18T17:18:35;6.40;99.90
30764;DHT22;17497;51.476;7.770;2023-11-18T17:21:01;6.40;99.90
30764;DHT22;17497;51.476;7.770;2023-11-18T17:23:29;6.40;99.90
30764;DHT22;17497;51.476;7.770;2023-11-18T17:25:57;6.40;99.90
30764;DHT22;17497;51.476;7.770;2023-11-18T17:28:24;6.40;99.90
30764;DHT22;17497;51.476;7.770;2023-11-18T17:30:50;6.40;99.90
30764;DHT22;17497;51.476;7.770;2023-11-18T17:33:17;6.40;99.90
30764;DHT22;17497;51.476;7.770;2023-11-18T17:35:44;6.50;99.90
30764;DHT22;17497;51.476;7.770;2023-11-18T17:38:11;6.50;99.90
30764;DHT22;17497;51.476;7.770;2023-11-18T17:40:37;6.50;99.90
30764;DHT22;17497;51.476;7.770;2023-11-18T17:43:04;6.60;99.90
30764;DHT22;17497;51.476;7.770;2023-11-18T17:45:31;6.50;99.90
30764;DHT22;17497;51.476;7.770;2023-11-18T17:47:57;6.60;99.90
30764;DHT22;17497;51.476;7.770;2023-11-18T17:50:24;6.60;99.90
30764;DHT22;17497;51.476;7.770;2023-11-18T17:52:53;6.70;99.90
30764;DHT22;17497;51.476;7.770;2023-11-18T17:55:19;6.80;99.90
30764;DHT22;17497;51.476;7.770;2023-11-18T17:57:46;6.80;99.90
30764;DHT22;17497;51.476;7.770;2023-11-18T18:00:13;6.70;99.90
30764;DHT22;17497;51.476;7.770;2023-11-18T18:02:46;6.70;99.90
30764;DHT22;17497;51.476;7.770;2023-11-18T18:05:13;6.70;99.90
30764;DHT22;17497;51.476;7.770;2023-11-18T18:07:42;6.70;99.90
30764;DHT22;17497;51.476;7.770;2023-11-18T18:10:09;6.70;99.90
30764;DHT22;17497;51.476;7.770;2023-11-18T18:12:36;6.70;99.90
30764;DHT22;17497;51.476;7.770;2023-11-18T18:15:03;6.70;99.90
30764;DHT22;17497;51.476;7.770;2023-11-18T18:17:34;6.80;99.90
30764;DHT22;17497;51.476;7.770;2023-11-18T18:20:01;6.80;99.90
30764;DHT22;17497;51.476;7.770;2023-11-18T18:22:28;6.80;99.90
30764;DHT22;17497;51.476;7.770;2023-11-18T18:24:55;6.80;99.90
30764;DHT22;17497;51.476;7.770;2023-11-18T18:27:22;6.80;99.90
30764;DHT22;17497;51.476;7.770;2023-11-18T18:29:49;6.90;99.90
30764;DHT22;17497;51.476;7.770;2023-11-18T18:32:15;6.90;99.90
30764;DHT22;17497;51.476;7.770;2023-11-18T18:34:42;6.80;99.90
30764;DHT22;17497;51.476;7.770;2023-11-18T18:37:09;6.90;99.90
30764;DHT22;17497;51.476;7.770;2023-11-18T18:39:35;6.90;99.90
30764;DHT22;17497;51.476;7.770;2023-11-18T18:42:02;6.90;99.90
30764;DHT22;17497;51.476;7.770;2023-11-18T18:44:29;6.90;99.90
30764;DHT22;17497;51.476;7.770;2023-11-18T18:46:56;6.90;99.90
30764;DHT22;17497;51.476;7.770;2023-11-18T18:49:23;6.90;99.90
30764;DHT22;17497;51.476;7.770;2023-11-18T18:51:49;6.90;99.90
30764;DHT22;17497;51.476;7.770;2023-11-18T18:54:17;7.00;99.90
30764;DHT22;17497;51.476;7.770;2023-11-18T18:56:44;7.00;99.90
30764;DHT22;17497;51.476;7.770;2023-11-18T18:59:10;7.00;99.90
30764;DHT22;17497;51.476;7.770;2023-11-18T19:01:38;7.00;99.90
30764;DHT22;17497;51.476;7.770;2023-11-18T19:04:05;7.00;99.90
30764;DHT22;17497;51.476;7.770;2023-11-18T19:06:31;7.00;99.90
30764;DHT22;17497;51.476;7.770;2023-11-18T19:08:59;7.10;99.90
30764;DHT22;17497;51.476;7.770;2023-11-18T19:11:26;7.10;99.90
30764;DHT22;17497;51.476;7.770;2023-11-18T19:13:52;7.10;99.90
30764;DHT22;17497;51.476;7.770;2023-11-18T19:16:19;7.10;99.90
30764;DHT22;17497;51.476;7.770;2023-11-18T19:18:45;7.10;99.90
30764;DHT22;17497;51.476;7.770;2023-11-18T19:21:13;7.20;99.90
30764;DHT22;17497;51.476;7.770;2023-11-18T19:23:39;7.10;99.90
30764;DHT22;17497;51.476;7.770;2023-11-18T19:26:06;7.20;99.90
30764;DHT22;17497;51.476;7.770;2023-11-18T19:28:33;7.20;99.90
30764;DHT22;17497;51.476;7.770;2023-11-18T19:31:00;7.20;99.90
30764;DHT22;17497;51.476;7.770;2023-11-18T19:33:26;7.30;99.90
30764;DHT22;17497;51.476;7.770;2023-11-18T19:35:54;7.30;99.90
30764;DHT22;17497;51.476;7.770;2023-11-18T19:38:21;7.40;99.90
30764;DHT22;17497;51.476;7.770;2023-11-18T19:40:48;7.50;99.90
30764;DHT22;17497;51.476;7.770;2023-11-18T19:43:15;7.50;99.90
30764;DHT22;17497;51.476;7.770;2023-11-18T19:45:41;7.50;99.90
30764;DHT22;17497;51.476;7.770;2023-11-18T19:48:08;7.60;99.90
30764;DHT22;17497;51.476;7.770;2023-11-18T19:50:35;7.70;99.90